createdAt,value
2022-08-26T00:02:14.115Z,9.84
2022-08-26T00:04:44.153Z,9.77
2022-08-26T00:07:12.392Z,9.74
2022-08-26T00:09:40.673Z,9.69
2022-08-26T00:12:12.140Z,9.63
2022-08-26T00:14:41.858Z,9.57
2022-08-26T00:17:12.113Z,9.53
2022-08-26T00:19:40.513Z,9.52
2022-08-26T00:22:09.093Z,9.48
2022-08-26T00:24:37.293Z,9.39
2022-08-26T00:27:06.593Z,9.32
2022-08-26T00:29:35.597Z,9.27
2022-08-26T00:32:07.366Z,9.20
2022-08-26T00:34:37.874Z,9.14
2022-08-26T00:37:09.386Z,9.08
2022-08-26T00:39:38.653Z,9.03
2022-08-26T00:42:07.113Z,8.99
2022-08-26T00:44:35.572Z,9.04
2022-08-26T00:47:08.003Z,9.12
2022-08-26T00:49:40.332Z,9.22
2022-08-26T00:52:13.067Z,9.31
2022-08-26T00:54:47.089Z,9.43
2022-08-26T00:57:18.894Z,9.52
2022-08-26T00:59:52.415Z,9.60
2022-08-26T01:02:21.532Z,9.67
2022-08-26T01:04:56.219Z,9.71
2022-08-26T01:07:27.545Z,9.75
2022-08-26T01:10:00.732Z,9.78
2022-08-26T01:12:32.837Z,9.79
2022-08-26T01:15:02.181Z,9.81
2022-08-26T01:17:30.612Z,9.88
2022-08-26T01:20:09.073Z,9.92
2022-08-26T01:22:50.432Z,9.95
2022-08-26T01:25:22.353Z,9.99
2022-08-26T01:27:51.732Z,10.04
2022-08-26T01:30:21.092Z,10.07
2022-08-26T01:32:51.591Z,10.08
2022-08-26T01:35:20.573Z,10.11
2022-08-26T01:37:55.255Z,10.09
2022-08-26T01:40:29.742Z,10.06
2022-08-26T01:42:58.421Z,10.01
2022-08-26T01:45:30.160Z,9.96
2022-08-26T01:48:03.052Z,9.92
2022-08-26T01:50:35.974Z,9.91
2022-08-26T01:53:09.511Z,9.91
2022-08-26T01:55:42.612Z,9.92
2022-08-26T01:58:14.952Z,9.92
2022-08-26T02:00:44.098Z,9.88
2022-08-26T02:03:19.032Z,9.83
2022-08-26T02:05:51.544Z,9.83
2022-08-26T02:08:25.303Z,9.81
2022-08-26T02:10:55.025Z,9.82
2022-08-26T02:13:25.993Z,9.80
2022-08-26T02:15:56.442Z,9.79
2022-08-26T02:18:25.953Z,9.80
2022-08-26T02:20:56.152Z,9.79
2022-08-26T02:23:26.572Z,9.76
2022-08-26T02:26:01.325Z,9.73
2022-08-26T02:28:34.794Z,9.68
2022-08-26T02:31:02.915Z,9.66
2022-08-26T02:33:33.432Z,9.67
2022-08-26T02:36:04.472Z,9.67
2022-08-26T02:38:34.072Z,9.64
2022-08-26T02:41:02.432Z,9.61
2022-08-26T02:43:31.772Z,9.58
2022-08-26T02:46:02.663Z,9.60
2022-08-26T02:48:31.582Z,9.62
2022-08-26T02:51:02.072Z,9.56
2022-08-26T02:53:32.132Z,9.50
2022-08-26T02:56:08.369Z,9.43
2022-08-26T02:58:36.892Z,9.34
2022-08-26T03:01:05.802Z,9.25
2022-08-26T03:03:35.093Z,9.21
2022-08-26T03:06:03.272Z,9.16
2022-08-26T03:08:31.712Z,9.13
2022-08-26T03:11:01.590Z,9.07
2022-08-26T03:13:31.730Z,9.00
2022-08-26T03:16:02.782Z,8.92
2022-08-26T03:18:31.392Z,8.90
2022-08-26T03:21:00.073Z,8.87
2022-08-26T03:23:28.452Z,8.88
2022-08-26T03:25:57.013Z,8.84
2022-08-26T03:28:27.200Z,8.76
2022-08-26T03:30:57.694Z,8.73
2022-08-26T03:33:26.852Z,8.67
2022-08-26T03:35:56.252Z,8.63
2022-08-26T03:38:26.254Z,8.65
2022-08-26T03:40:56.672Z,8.71
2022-08-26T03:43:27.140Z,8.65
2022-08-26T03:45:56.976Z,8.50
2022-08-26T03:48:25.763Z,8.42
2022-08-26T03:50:54.172Z,8.40
2022-08-26T03:53:23.820Z,8.42
2022-08-26T03:55:52.272Z,8.43
2022-08-26T03:58:21.032Z,8.38
2022-08-26T04:00:50.192Z,8.31
2022-08-26T04:03:39.732Z,8.23
2022-08-26T04:06:09.390Z,8.22
2022-08-26T04:08:38.271Z,8.27
2022-08-26T04:11:07.779Z,8.28
2022-08-26T04:13:36.555Z,8.26
2022-08-26T04:16:05.592Z,8.24
2022-08-26T04:18:38.271Z,8.19
2022-08-26T04:21:15.792Z,8.23
2022-08-26T04:23:47.759Z,8.18
2022-08-26T04:26:16.832Z,8.10
2022-08-26T04:28:45.371Z,8.03
2022-08-26T04:31:16.024Z,7.97
2022-08-26T04:33:47.573Z,7.97
2022-08-26T04:36:19.779Z,7.96
2022-08-26T04:38:50.698Z,7.96
2022-08-26T04:41:20.792Z,7.96
2022-08-26T04:43:50.392Z,7.92
2022-08-26T04:46:23.107Z,7.78
2022-08-26T04:48:54.532Z,7.71
2022-08-26T04:51:28.097Z,7.68
2022-08-26T04:53:57.653Z,7.64
2022-08-26T04:56:26.731Z,7.65
2022-08-26T04:58:55.171Z,7.72
2022-08-26T05:01:23.969Z,7.79
2022-08-26T05:03:54.848Z,7.79
2022-08-26T05:06:23.452Z,7.78
2022-08-26T05:08:51.754Z,7.76
2022-08-26T05:11:22.082Z,7.79
2022-08-26T05:13:51.252Z,7.74
2022-08-26T05:16:20.111Z,7.73
2022-08-26T05:18:48.512Z,7.77
2022-08-26T05:21:21.032Z,7.86
2022-08-26T05:23:51.712Z,7.94
2022-08-26T05:26:23.081Z,7.97
2022-08-26T05:28:54.568Z,8.02
2022-08-26T05:31:26.863Z,8.09
2022-08-26T05:33:57.611Z,8.13
2022-08-26T05:36:30.032Z,8.18
2022-08-26T05:38:59.292Z,8.25
2022-08-26T05:41:36.109Z,8.31
2022-08-26T05:44:07.772Z,8.36
2022-08-26T05:46:38.506Z,8.44
2022-08-26T05:49:12.561Z,8.54
2022-08-26T05:51:47.668Z,8.61
2022-08-26T05:54:22.382Z,8.62
2022-08-26T05:56:52.011Z,8.65
2022-08-26T05:59:21.384Z,8.66
2022-08-26T06:01:54.667Z,8.66
2022-08-26T06:04:27.084Z,8.71
2022-08-26T06:06:57.632Z,8.76
2022-08-26T06:09:26.912Z,8.79
2022-08-26T06:11:55.947Z,8.82
2022-08-26T06:14:25.959Z,8.87
2022-08-26T06:16:55.012Z,8.91
2022-08-26T06:19:23.352Z,8.95
2022-08-26T06:21:54.669Z,8.97
2022-08-26T06:24:42.140Z,9.00
2022-08-26T06:27:13.940Z,9.04
2022-08-26T06:29:43.731Z,9.07
2022-08-26T06:32:12.495Z,9.11
2022-08-26T06:34:41.051Z,9.16
2022-08-26T06:37:09.852Z,9.20
2022-08-26T06:39:41.210Z,9.21
2022-08-26T06:42:11.811Z,9.21
2022-08-26T06:44:44.671Z,9.25
2022-08-26T06:47:13.174Z,9.26
2022-08-26T06:49:41.752Z,9.31
2022-08-26T06:52:10.112Z,9.39
2022-08-26T06:54:44.214Z,9.46
2022-08-26T06:57:12.971Z,9.53
2022-08-26T06:59:42.893Z,9.60
2022-08-26T07:02:13.589Z,9.70
2022-08-26T07:04:42.352Z,9.73
2022-08-26T07:07:14.755Z,9.77
2022-08-26T07:09:44.652Z,9.78
2022-08-26T07:12:13.079Z,9.85
2022-08-26T07:14:41.600Z,9.92
2022-08-26T07:17:16.317Z,9.96
2022-08-26T07:19:45.254Z,10.01
2022-08-26T07:22:14.228Z,10.11
2022-08-26T07:24:42.744Z,10.24
2022-08-26T07:27:15.832Z,10.33
2022-08-26T07:29:44.967Z,10.38
2022-08-26T07:32:14.778Z,10.44
2022-08-26T07:34:43.602Z,10.51
2022-08-26T07:37:12.674Z,10.63
2022-08-26T07:39:43.290Z,10.86
2022-08-26T07:42:14.380Z,10.96
2022-08-26T07:44:43.793Z,11.07
2022-08-26T07:47:25.075Z,11.16
2022-08-26T07:49:55.995Z,11.27
2022-08-26T07:52:26.948Z,11.35
2022-08-26T07:54:56.491Z,11.41
2022-08-26T07:57:26.732Z,11.43
2022-08-26T07:59:55.908Z,11.47
2022-08-26T08:02:26.916Z,11.55
2022-08-26T08:04:56.937Z,11.62
2022-08-26T08:07:25.740Z,11.72
2022-08-26T08:10:11.605Z,11.77
2022-08-26T08:12:42.237Z,11.82
2022-08-26T08:15:13.749Z,11.92
2022-08-26T08:17:43.453Z,11.93
2022-08-26T08:20:13.841Z,11.96
2022-08-26T08:22:46.171Z,11.92
2022-08-26T08:25:16.112Z,11.94
2022-08-26T08:27:46.672Z,11.93
2022-08-26T08:30:22.656Z,11.93
2022-08-26T08:32:51.612Z,11.93
2022-08-26T08:35:22.656Z,12.02
2022-08-26T08:37:54.408Z,12.13
2022-08-26T08:40:25.128Z,12.16
2022-08-26T08:42:59.993Z,12.16
2022-08-26T08:45:37.073Z,12.23
2022-08-26T08:48:12.352Z,12.24
2022-08-26T08:50:45.801Z,12.33
2022-08-26T08:53:17.474Z,12.43
2022-08-26T08:55:59.773Z,12.53
2022-08-26T08:58:42.459Z,12.73
2022-08-26T09:01:35.478Z,12.82
2022-08-26T09:04:28.432Z,12.89
2022-08-26T09:06:59.794Z,13.00
2022-08-26T09:09:34.118Z,13.02
2022-08-26T09:12:03.671Z,13.03
2022-08-26T09:14:33.832Z,13.04
2022-08-26T09:17:09.958Z,13.33
2022-08-26T09:19:44.511Z,13.60
2022-08-26T09:22:29.173Z,13.95
2022-08-26T09:24:57.800Z,14.18
2022-08-26T09:27:40.252Z,14.46
2022-08-26T09:30:12.573Z,14.43
2022-08-26T09:32:41.033Z,14.45
2022-08-26T09:35:12.191Z,14.74
2022-08-26T09:40:19.423Z,15.27
2022-08-26T09:42:48.992Z,15.35
2022-08-26T09:45:29.191Z,15.34
2022-08-26T09:48:01.316Z,15.37
2022-08-26T09:50:36.674Z,15.34
2022-08-26T09:53:09.901Z,15.55
2022-08-26T09:55:43.552Z,15.59
2022-08-26T09:58:15.833Z,15.74
2022-08-26T10:00:56.228Z,16.05
2022-08-26T10:03:31.704Z,16.29
2022-08-26T10:06:02.172Z,16.50
2022-08-26T10:08:34.254Z,16.43
2022-08-26T10:11:06.731Z,16.21
2022-08-26T10:13:38.912Z,16.25
2022-08-26T10:16:15.490Z,16.78
2022-08-26T10:18:48.972Z,17.25
2022-08-26T10:21:26.113Z,17.19
2022-08-26T10:23:58.851Z,17.02
2022-08-26T10:26:34.192Z,16.91
2022-08-26T10:29:11.429Z,16.88
2022-08-26T10:31:45.920Z,16.83
2022-08-26T10:34:17.911Z,16.78
2022-08-26T10:37:14.347Z,16.58
2022-08-26T10:39:57.014Z,16.55
2022-08-26T10:42:33.556Z,16.59
2022-08-26T10:45:11.621Z,16.80
2022-08-26T10:47:48.792Z,17.00
2022-08-26T10:50:18.865Z,17.28
2022-08-26T10:52:59.013Z,17.74
2022-08-26T10:55:37.221Z,17.79
2022-08-26T10:58:26.501Z,17.89
2022-08-26T11:01:22.738Z,18.19
2022-08-26T11:04:01.395Z,18.23
2022-08-26T11:06:31.852Z,17.95
2022-08-26T11:09:01.105Z,18.00
2022-08-26T11:11:50.072Z,18.37
2022-08-26T11:14:46.163Z,18.58
2022-08-26T11:18:01.934Z,18.45
2022-08-26T11:20:39.129Z,19.08
2022-08-26T11:23:42.812Z,19.30
2022-08-26T11:26:18.908Z,19.36
2022-08-26T11:29:04.674Z,19.50
2022-08-26T11:31:58.919Z,19.89
2022-08-26T11:35:03.941Z,19.81
2022-08-26T11:37:40.635Z,19.80
2022-08-26T11:40:12.849Z,19.69
2022-08-26T11:42:44.413Z,20.30
2022-08-26T11:45:19.359Z,20.45
2022-08-26T11:47:49.473Z,20.78
2022-08-26T11:50:21.134Z,21.35
2022-08-26T11:52:55.252Z,20.76
2022-08-26T11:55:24.376Z,20.32
2022-08-26T11:57:55.732Z,19.89
2022-08-26T12:00:26.533Z,19.84
2022-08-26T12:02:56.055Z,19.54
2022-08-26T12:05:31.144Z,19.45
2022-08-26T12:08:08.352Z,19.46
2022-08-26T12:10:38.047Z,19.39
2022-08-26T12:13:08.653Z,19.25
2022-08-26T12:15:36.913Z,19.20
2022-08-26T12:18:29.348Z,19.03
2022-08-26T12:21:01.537Z,19.12
2022-08-26T12:23:43.349Z,19.51
2022-08-26T12:26:20.579Z,19.81
2022-08-26T12:28:52.633Z,19.86
2022-08-26T12:31:24.517Z,19.94
2022-08-26T12:33:54.674Z,19.88
2022-08-26T12:36:27.626Z,19.79
2022-08-26T12:38:59.113Z,19.80
2022-08-26T12:41:47.784Z,19.87
2022-08-26T12:44:35.760Z,19.92
2022-08-26T12:47:09.872Z,19.90
2022-08-26T12:49:40.153Z,19.83
2022-08-26T12:52:30.028Z,19.69
2022-08-26T12:55:03.151Z,19.54
2022-08-26T12:57:36.056Z,19.59
2022-08-26T13:00:29.952Z,19.62
2022-08-26T13:02:57.956Z,19.64
2022-08-26T13:05:28.852Z,19.73
2022-08-26T13:08:16.712Z,19.70
2022-08-26T13:10:48.980Z,19.72
2022-08-26T13:13:17.353Z,19.79
2022-08-26T13:15:45.833Z,19.61
2022-08-26T13:18:14.132Z,19.59
2022-08-26T13:21:02.453Z,19.58
2022-08-26T13:23:30.992Z,19.62
2022-08-26T13:26:00.560Z,19.74
2022-08-26T13:28:28.915Z,19.87
2022-08-26T13:30:57.349Z,19.78
2022-08-26T13:33:26.322Z,19.71
2022-08-26T13:35:54.941Z,19.64
2022-08-26T13:38:33.734Z,19.48
2022-08-26T13:41:05.253Z,19.32
2022-08-26T13:43:33.991Z,19.32
2022-08-26T13:46:02.752Z,19.40
2022-08-26T13:48:31.893Z,19.53
2022-08-26T13:51:00.152Z,19.66
2022-08-26T13:53:29.500Z,19.78
2022-08-26T13:55:58.092Z,20.48
2022-08-26T13:58:28.660Z,20.61
2022-08-26T14:00:58.210Z,20.63
2022-08-26T14:03:26.724Z,20.91
2022-08-26T14:05:55.332Z,20.84
2022-08-26T14:08:24.252Z,20.77
2022-08-26T14:10:52.681Z,20.59
2022-08-26T14:13:21.279Z,20.44
2022-08-26T14:15:50.969Z,20.90
2022-08-26T14:18:22.472Z,21.25
2022-08-26T14:21:10.411Z,20.98
2022-08-26T14:23:38.732Z,21.10
2022-08-26T14:26:08.322Z,20.97
2022-08-26T14:28:37.034Z,20.62
2022-08-26T14:33:54.552Z,20.13
2022-08-26T14:36:40.233Z,20.02
2022-08-26T14:39:11.292Z,19.83
2022-08-26T14:41:54.003Z,19.63
2022-08-26T14:44:27.957Z,19.44
2022-08-26T14:47:00.033Z,19.51
2022-08-26T14:49:28.349Z,19.59
2022-08-26T14:51:56.772Z,19.50
2022-08-26T14:54:24.380Z,19.48
2022-08-26T14:56:55.391Z,19.43
2022-08-26T14:59:26.232Z,19.50
2022-08-26T15:01:55.596Z,19.46
2022-08-26T15:04:25.793Z,19.43
2022-08-26T15:06:55.540Z,19.50
2022-08-26T15:09:24.993Z,19.47
2022-08-26T15:12:12.452Z,19.31
2022-08-26T15:14:40.691Z,19.24
2022-08-26T15:17:09.113Z,19.29
2022-08-26T15:19:40.593Z,19.37
2022-08-26T15:22:09.474Z,19.38
2022-08-26T15:24:37.853Z,19.30
2022-08-26T15:27:06.435Z,19.24
2022-08-26T15:29:36.216Z,19.16
2022-08-26T15:32:05.671Z,19.10
2022-08-26T15:34:34.172Z,18.95
2022-08-26T15:37:03.761Z,18.87
2022-08-26T15:39:31.970Z,18.70
2022-08-26T15:42:00.856Z,18.70
2022-08-26T15:44:29.513Z,18.77
2022-08-26T15:46:58.991Z,18.83
2022-08-26T15:49:28.099Z,18.86
2022-08-26T15:51:56.573Z,18.80
2022-08-26T15:57:14.393Z,18.76
2022-08-26T15:59:44.192Z,18.70
2022-08-26T16:02:12.499Z,18.68
2022-08-26T16:04:40.832Z,18.65
2022-08-26T16:07:12.734Z,18.59
2022-08-26T16:09:42.332Z,18.54
2022-08-26T16:12:10.658Z,18.42
2022-08-26T16:14:44.175Z,18.34
2022-08-26T16:17:12.640Z,18.21
2022-08-26T16:19:41.052Z,18.19
2022-08-26T16:22:09.339Z,18.18
2022-08-26T16:24:37.872Z,18.19
2022-08-26T16:27:08.972Z,18.12
2022-08-26T16:29:39.371Z,18.11
2022-08-26T16:32:08.961Z,18.07
2022-08-26T16:34:37.452Z,18.08
2022-08-26T16:37:15.773Z,18.09
2022-08-26T16:39:45.287Z,18.06
2022-08-26T16:42:15.731Z,18.07
2022-08-26T16:44:46.751Z,18.10
2022-08-26T16:47:16.713Z,18.08
2022-08-26T16:49:45.413Z,18.05
2022-08-26T16:52:14.145Z,18.07
2022-08-26T16:54:43.651Z,18.10
2022-08-26T16:57:14.413Z,18.09
2022-08-26T16:59:42.931Z,18.07
2022-08-26T17:02:11.911Z,18.10
2022-08-26T17:04:41.252Z,18.11
2022-08-26T17:07:14.733Z,18.11
2022-08-26T17:09:43.612Z,18.09
2022-08-26T17:12:12.315Z,18.09
2022-08-26T17:14:42.419Z,18.19
2022-08-26T17:17:14.931Z,18.31
2022-08-26T17:19:47.259Z,18.41
2022-08-26T17:22:16.232Z,18.39
2022-08-26T17:24:44.473Z,18.28
2022-08-26T17:27:14.460Z,18.10
2022-08-26T17:29:44.931Z,17.96
2022-08-26T17:32:13.351Z,17.75
2022-08-26T17:34:41.911Z,17.58
2022-08-26T17:37:10.532Z,17.39
2022-08-26T17:39:42.632Z,17.25
2022-08-26T17:42:12.271Z,17.14
2022-08-26T17:44:40.592Z,17.06
2022-08-26T17:47:10.512Z,17.02
2022-08-26T17:49:38.892Z,16.95
2022-08-26T17:52:11.355Z,16.84
2022-08-26T17:54:39.891Z,16.80
2022-08-26T17:57:10.598Z,16.71
2022-08-26T17:59:40.929Z,16.64
2022-08-26T18:02:10.812Z,16.59
2022-08-26T18:04:39.412Z,16.58
2022-08-26T18:07:07.746Z,16.61
2022-08-26T18:09:36.231Z,16.68
2022-08-26T18:12:04.982Z,16.67
2022-08-26T18:14:34.292Z,16.68
2022-08-26T18:17:03.115Z,16.65
2022-08-26T18:19:33.127Z,16.58
2022-08-26T18:22:01.680Z,16.54
2022-08-26T18:24:32.312Z,16.45
2022-08-26T18:27:00.751Z,16.33
2022-08-26T18:29:29.192Z,16.19
2022-08-26T18:31:58.271Z,16.05
2022-08-26T18:34:31.619Z,15.90
2022-08-26T18:37:02.138Z,15.72
2022-08-26T18:39:30.458Z,15.60
2022-08-26T18:41:58.845Z,15.50
2022-08-26T18:44:27.133Z,15.40
2022-08-26T18:46:55.811Z,15.27
2022-08-26T18:49:24.392Z,15.14
2022-08-26T18:51:52.691Z,15.01
2022-08-26T18:54:22.465Z,14.90
2022-08-26T18:56:50.792Z,14.81
2022-08-26T18:59:19.012Z,14.67
2022-08-26T19:01:50.885Z,14.53
2022-08-26T19:04:19.642Z,14.36
2022-08-26T19:06:49.552Z,14.23
2022-08-26T19:09:19.152Z,14.10
2022-08-26T19:11:50.739Z,14.00
2022-08-26T19:14:19.792Z,13.92
2022-08-26T19:16:50.781Z,13.82
2022-08-26T19:19:19.988Z,13.71
2022-08-26T19:21:49.712Z,13.58
2022-08-26T19:24:19.832Z,13.46
2022-08-26T19:26:57.867Z,13.36
2022-08-26T19:29:28.402Z,13.30
2022-08-26T19:31:56.912Z,13.30
2022-08-26T19:34:25.457Z,13.29
2022-08-26T19:36:54.698Z,13.22
2022-08-26T19:39:23.012Z,13.18
2022-08-26T19:41:53.416Z,13.13
2022-08-26T19:44:40.752Z,12.98
2022-08-26T19:47:10.733Z,12.88
2022-08-26T19:49:39.093Z,12.82
2022-08-26T19:52:07.872Z,12.80
2022-08-26T19:54:36.492Z,12.76
2022-08-26T19:57:06.809Z,12.73
2022-08-26T19:59:36.312Z,12.71
2022-08-26T20:02:09.987Z,12.70
2022-08-26T20:04:39.606Z,12.69
2022-08-26T20:07:07.814Z,12.67
2022-08-26T20:09:36.813Z,12.67
2022-08-26T20:12:08.592Z,12.64
2022-08-26T20:14:37.490Z,12.55
2022-08-26T20:17:06.668Z,12.43
2022-08-26T20:19:52.915Z,12.30
2022-08-26T20:22:21.812Z,12.14
2022-08-26T20:24:51.113Z,11.98
2022-08-26T20:27:27.452Z,11.85
2022-08-26T20:30:09.054Z,11.69
2022-08-26T20:32:38.150Z,11.62
2022-08-26T20:35:09.329Z,11.53
2022-08-26T20:37:38.313Z,11.48
2022-08-26T20:40:08.906Z,11.45
2022-08-26T20:42:39.220Z,11.44
2022-08-26T20:45:08.932Z,11.49
2022-08-26T20:47:37.632Z,11.55
2022-08-26T20:50:08.112Z,11.62
2022-08-26T20:52:36.712Z,11.61
2022-08-26T20:55:05.652Z,11.56
2022-08-26T20:57:33.912Z,11.46
2022-08-26T21:00:04.272Z,11.33
2022-08-26T21:02:32.593Z,11.22
2022-08-26T21:05:01.143Z,11.15
2022-08-26T21:07:30.259Z,11.13
2022-08-26T21:09:58.591Z,11.12
2022-08-26T21:12:28.028Z,11.10
2022-08-26T21:14:56.372Z,11.07
2022-08-26T21:17:25.951Z,11.04
2022-08-26T21:19:54.372Z,10.96
2022-08-26T21:22:23.213Z,10.85
2022-08-26T21:24:51.399Z,10.84
2022-08-26T21:27:26.188Z,10.83
2022-08-26T21:29:55.558Z,10.81
2022-08-26T21:32:25.311Z,10.72
2022-08-26T21:34:56.013Z,10.58
2022-08-26T21:37:25.055Z,10.47
2022-08-26T21:39:55.108Z,10.46
2022-08-26T21:42:24.533Z,10.48
2022-08-26T21:44:53.372Z,10.53
2022-08-26T21:47:22.374Z,10.57
2022-08-26T21:49:52.011Z,10.61
2022-08-26T21:52:21.357Z,10.60
2022-08-26T21:54:49.988Z,10.53
2022-08-26T21:57:19.071Z,10.50
2022-08-26T21:59:47.551Z,10.42
2022-08-26T22:02:16.083Z,10.32
2022-08-26T22:04:48.521Z,10.21
2022-08-26T22:07:20.391Z,10.09
2022-08-26T22:09:49.658Z,10.07
2022-08-26T22:12:19.058Z,10.11
2022-08-26T22:14:48.216Z,10.14
2022-08-26T22:17:17.125Z,10.18
2022-08-26T22:19:46.790Z,10.18
2022-08-26T22:22:15.812Z,10.23
2022-08-26T22:24:46.391Z,10.27
2022-08-26T22:27:15.232Z,10.33
2022-08-26T22:29:43.751Z,10.41
2022-08-26T22:32:12.106Z,10.36
2022-08-26T22:34:42.351Z,10.27
2022-08-26T22:37:10.691Z,10.15
2022-08-26T22:39:39.251Z,10.07
2022-08-26T22:42:09.171Z,10.05
2022-08-26T22:44:37.624Z,10.08
2022-08-26T22:47:06.492Z,10.15
2022-08-26T22:49:34.831Z,10.25
2022-08-26T22:52:03.491Z,10.29
2022-08-26T22:54:31.771Z,10.35
2022-08-26T22:57:00.512Z,10.38
2022-08-26T22:59:30.291Z,10.41
2022-08-26T23:01:58.751Z,10.47
2022-08-26T23:04:27.165Z,10.53
2022-08-26T23:06:55.491Z,10.60
2022-08-26T23:09:23.871Z,10.63
2022-08-26T23:11:52.212Z,10.72
2022-08-26T23:14:20.571Z,10.81
2022-08-26T23:16:51.810Z,10.90
2022-08-26T23:19:23.373Z,10.96
2022-08-26T23:21:51.991Z,11.06
2022-08-26T23:24:20.492Z,11.14
2022-08-26T23:26:49.133Z,11.19
2022-08-26T23:29:17.433Z,11.25
2022-08-26T23:31:46.023Z,11.31
2022-08-26T23:34:33.693Z,11.35
2022-08-26T23:37:02.571Z,11.38
2022-08-26T23:39:36.511Z,11.39
2022-08-26T23:42:06.553Z,11.37
2022-08-26T23:44:35.391Z,11.36
2022-08-26T23:47:04.919Z,11.31
2022-08-26T23:49:35.639Z,11.29
2022-08-26T23:52:22.873Z,11.29
2022-08-26T23:54:52.454Z,11.33
2022-08-26T23:57:22.791Z,11.38
2022-08-26T23:59:51.451Z,11.40
